Domov
logo

Sponzorovaný hosting od WebSupport.sk
Vlastný virtuálny server od 5,65 € od WebSupport.sk

Aktuálne počasie

LZIB - letisko Bratislava

Hodnoty namerané: 22.02.2019, 09:00 SEČ
Aktuálny čas: 22.02.2019, 09:11 SEČ
Aktualizované: pred 11 min.
Teplota: 9°C, pocitová teplota 6°C
Rosný bod: 5°C
Vietor: 22 km/h 310° (SZ) kolíše v rozsahu 280°-350° (Z-S)
Dohľadnosť: viac ako 10 km
Stav počasia: bez zrážok
Oblačnosť: malá oblačnosť na 366 m, oblačno na 579 m
Základňa oblačnosti: 366 m
Vlhkosť vzduchu: 76 %
Tlak vzduchu: 1022 hPa
METAR: LZIB 220800Z 31012KT 280V350 9999 FEW012 BKN019 09/05 Q1022 BECMG 36017G34KT

LZKZ - letisko Košice

Hodnoty namerané: 22.02.2019, 09:05 SEČ
Aktuálny čas: 22.02.2019, 09:11 SEČ
Aktualizované: pred 6 min.
Teplota: 3°C, pocitová teplota -4°C
Rosný bod: -1°C
Vietor: 46 km/h nárazy do 67 km/h 360° (S)
Dohľadnosť: viac ako 10 km
Stav počasia: bez zrážok
Oblačnosť: malá oblačnosť na 152 m, zamračené na 792 m
Základňa oblačnosti: 152 m
Vlhkosť vzduchu: 75 %
Tlak vzduchu: 1019 hPa
METAR: LZKZ 220805Z 36025G36KT 9999 FEW005 OVC026 03/M01 Q1019

LZPP - letisko Piešťany

Hodnoty namerané: 22.02.2019, 09:00 SEČ
Aktuálny čas: 22.02.2019, 09:11 SEČ
Aktualizované: pred 11 min.
Teplota: 8°C, pocitová teplota 4°C
Rosný bod: 5°C
Vietor: 33 km/h 340° (SSZ)
Dohľadnosť: viac ako 10 km
Stav počasia: bez zrážok
Oblačnosť: oblačno na 610 m, oblačno na 914 m
Základňa oblačnosti: 610 m
Vlhkosť vzduchu: 82 %
Tlak vzduchu: 1021 hPa
METAR: LZPP 220800Z 34018KT 9999 BKN020 BKN030 08/05 Q1021

LZTT - letisko Poprad Tatry

Hodnoty namerané: 22.02.2019, 09:08 SEČ
Aktuálny čas: 22.02.2019, 09:11 SEČ
Aktualizované: pred 3 min.
Teplota: 0°C, pocitová teplota -8°C
Rosný bod: -2°C
Vietor: 44 km/h nárazy do 65 km/h 40° (SV)
Dohľadnosť: viac ako 10 km
Stav počasia: slabý(á,é) sneženie
Oblačnosť: malá oblačnosť na 152 m, polooblačno na 457 m, oblačno na 1311 m
Základňa oblačnosti: 152 m
Vlhkosť vzduchu: 87 %
Tlak vzduchu: 1018 hPa
METAR: LZTT 220808Z 04024G35KT 9999 -SN FEW005 SCT015 BKN043 M00/M02 Q1018

LZSL - letisko Sliač

Hodnoty namerané: 22.02.2019, 09:00 SEČ
Aktuálny čas: 22.02.2019, 09:11 SEČ
Aktualizované: pred 11 min.
Teplota: 4°C
Rosný bod: 2°C
Vietor: premenlivý 4 km/h
Dohľadnosť: viac ako 10 km
Stav počasia: bez zrážok
Oblačnosť: oblačno na 1189 m
Základňa oblačnosti: 1189 m
Vlhkosť vzduchu: 87 %
Tlak vzduchu: 1019 hPa
METAR: LZSL 220800Z VRB02KT 9999 BKN039 04/02 Q1019

LZZI - letisko Žilina

Hodnoty namerané: 22.02.2019, 09:00 SEČ
Aktuálny čas: 22.02.2019, 09:11 SEČ
Aktualizované: pred 11 min.
Teplota: 5°C, pocitová teplota 1°C
Rosný bod: 2°C
Vietor: 22 km/h 30° (SSV) kolíše v rozsahu 360°-60° (S-VSV)
Dohľadnosť: viac ako 10 km
Stav počasia: slabý(á,é) dážď
Oblačnosť: polooblačno na 396 m, oblačno na 732 m, zamračené na 1524 m
Základňa oblačnosti: 396 m
Vlhkosť vzduchu: 81 %
Tlak vzduchu: 1022 hPa
METAR: LZZI 220800Z 03012KT 360V060 9999 -RA SCT013 BKN024 OVC050 05/02 Q1022

POZNÁMKY:

SEČ - stredoeurópsky čas (UTC+1hod.)

SELČ - stredoeurópsky letný čas (UTC+2hod.)

UTC - univerzálny svetový čas, GMT, ZULU

METAR - sú pravidelné kódované letecké meteorologické správy. Tie zostavujú a zverejňujú meteorologické stanice letísk v polhodinových/hodinových intervaloch. Na tejto stránke správy METAR zo slovenských letísk nájdete už v dekódovanej podobe.

hore